createdAt,value
2023-04-13T00:02:14.650Z,96149.97
2023-04-13T00:04:41.307Z,96140.97
2023-04-13T00:07:07.845Z,96120.00
2023-04-13T00:09:34.515Z,96141.56
2023-04-13T00:12:01.072Z,96147.91
2023-04-13T00:14:27.685Z,96150.69
2023-04-13T00:16:54.279Z,96154.16
2023-04-13T00:19:20.862Z,96145.56
2023-04-13T00:21:47.492Z,96141.97
2023-04-13T00:24:14.376Z,96140.06
2023-04-13T00:26:40.942Z,96136.38
2023-04-13T00:29:07.514Z,96134.03
2023-04-13T00:31:34.174Z,96142.75
2023-04-13T00:34:00.784Z,96134.03
2023-04-13T00:36:27.380Z,96141.66
2023-04-13T00:38:53.928Z,96139.19
2023-04-13T00:41:20.520Z,96135.44
2023-04-13T00:43:47.187Z,96137.25
2023-04-13T00:46:13.812Z,96138.22
2023-04-13T00:48:40.384Z,96138.84
2023-04-13T00:51:06.973Z,96140.25
2023-04-13T00:53:33.531Z,96136.69
2023-04-13T00:56:00.142Z,96133.94
2023-04-13T00:58:26.712Z,96137.63
2023-04-13T01:00:53.297Z,96137.69
2023-04-13T01:03:20.179Z,96133.81
2023-04-13T01:05:46.793Z,96127.22
2023-04-13T01:08:13.331Z,96125.63
2023-04-13T01:10:39.918Z,96113.34
2023-04-13T01:13:06.473Z,96114.25
2023-04-13T01:15:33.090Z,96104.44
2023-04-13T01:17:59.746Z,96103.00
2023-04-13T01:20:26.408Z,96101.72
2023-04-13T01:22:53.010Z,96093.53
2023-04-13T01:25:19.573Z,96097.31
2023-04-13T01:27:46.129Z,96085.53
2023-04-13T01:30:13.044Z,96094.75
2023-04-13T01:32:39.684Z,96097.81
2023-04-13T01:35:06.217Z,96099.56
2023-04-13T01:37:32.784Z,96106.56
2023-04-13T01:39:59.451Z,96109.34
2023-04-13T01:42:26.034Z,96113.38
2023-04-13T01:44:52.577Z,96117.34
2023-04-13T01:47:19.221Z,96115.53
2023-04-13T01:49:45.805Z,96120.88
2023-04-13T01:52:12.417Z,96118.56
2023-04-13T01:54:38.985Z,96114.72
2023-04-13T01:57:05.592Z,96110.06
2023-04-13T01:59:32.204Z,96111.31
2023-04-13T02:01:58.791Z,96116.78
2023-04-13T02:04:25.403Z,96119.97
2023-04-13T02:06:51.999Z,96118.81
2023-04-13T02:09:18.598Z,96112.75
2023-04-13T02:11:45.172Z,96107.75
2023-04-13T02:14:11.734Z,96102.16
2023-04-13T02:16:38.333Z,96103.25
2023-04-13T02:19:05.056Z,96102.78
2023-04-13T02:21:31.644Z,96101.13
2023-04-13T02:23:58.423Z,96104.41
2023-04-13T02:26:25.150Z,96102.81
2023-04-13T02:28:51.745Z,96100.56
2023-04-13T02:31:18.323Z,96104.50
2023-04-13T02:33:44.913Z,96097.16
2023-04-13T02:36:11.478Z,96101.41
2023-04-13T02:38:38.038Z,96103.56
2023-04-13T02:41:04.888Z,96101.25
2023-04-13T02:43:31.441Z,96104.94
2023-04-13T02:45:58.078Z,96106.91
2023-04-13T02:48:24.676Z,96108.59
2023-04-13T02:50:51.262Z,96109.75
2023-04-13T02:53:17.883Z,96107.00
2023-04-13T02:55:44.582Z,96108.16
2023-04-13T02:58:11.248Z,96104.38
2023-04-13T03:00:37.780Z,96104.53
2023-04-13T03:03:04.381Z,96099.47
2023-04-13T03:05:38.539Z,96109.56
2023-04-13T03:08:05.165Z,96108.84
2023-04-13T03:10:31.852Z,96101.41
2023-04-13T03:12:58.435Z,96101.81
2023-04-13T03:15:25.007Z,96095.22
2023-04-13T03:17:51.600Z,96093.38
2023-04-13T03:20:18.343Z,96097.91
2023-04-13T03:22:44.897Z,96098.88
2023-04-13T03:25:11.446Z,96109.00
2023-04-13T03:27:38.007Z,96107.72
2023-04-13T03:30:04.544Z,96099.00
2023-04-13T03:32:31.126Z,96103.91
2023-04-13T03:34:57.733Z,96110.22
2023-04-13T03:37:24.343Z,96108.91
2023-04-13T03:39:50.883Z,96115.50
2023-04-13T03:42:17.450Z,96123.75
2023-04-13T03:44:44.025Z,96129.69
2023-04-13T03:47:12.910Z,96138.16
2023-04-13T03:49:39.465Z,96140.53
2023-04-13T03:52:06.005Z,96146.59
2023-04-13T03:54:32.616Z,96145.88
2023-04-13T03:56:59.184Z,96151.56
2023-04-13T03:59:25.750Z,96154.69
2023-04-13T04:01:52.396Z,96164.25
2023-04-13T04:04:19.193Z,96160.72
2023-04-13T04:06:45.821Z,96166.47
2023-04-13T04:09:12.402Z,96161.63
2023-04-13T04:11:39.000Z,96163.09
2023-04-13T04:14:05.553Z,96169.75
2023-04-13T04:16:32.147Z,96176.16
2023-04-13T04:18:58.897Z,96182.78
2023-04-13T04:21:25.632Z,96184.19
2023-04-13T04:23:52.282Z,96189.94
2023-04-13T04:26:18.870Z,96184.53
2023-04-13T04:28:45.464Z,96189.16
2023-04-13T04:31:12.149Z,96188.38
2023-04-13T04:33:38.789Z,96196.84
2023-04-13T04:36:05.417Z,96193.63
2023-04-13T04:38:32.314Z,96199.03
2023-04-13T04:40:58.864Z,96200.31
2023-04-13T04:43:25.598Z,96200.63
2023-04-13T04:45:52.285Z,96210.50
2023-04-13T04:48:19.024Z,96210.63
2023-04-13T04:50:45.574Z,96208.63
2023-04-13T04:53:12.140Z,96207.66
2023-04-13T04:55:38.809Z,96198.47
2023-04-13T04:58:05.374Z,96205.81
2023-04-13T05:00:31.975Z,96202.84
2023-04-13T05:02:58.710Z,96215.91
2023-04-13T05:05:25.391Z,96214.72
2023-04-13T05:07:51.990Z,96215.53
2023-04-13T05:10:18.564Z,96212.22
2023-04-13T05:12:45.237Z,96213.13
2023-04-13T05:15:12.239Z,96209.56
2023-04-13T05:17:38.822Z,96209.88
2023-04-13T05:20:05.715Z,96211.41
2023-04-13T05:22:32.365Z,96211.22
2023-04-13T05:24:58.994Z,96204.88
2023-04-13T05:27:25.566Z,96212.78
2023-04-13T05:29:52.109Z,96219.44
2023-04-13T05:32:18.713Z,96211.66
2023-04-13T05:34:45.272Z,96217.88
2023-04-13T05:37:11.848Z,96221.63
2023-04-13T05:39:38.413Z,96219.00
2023-04-13T05:42:05.000Z,96225.19
2023-04-13T05:44:31.654Z,96231.25
2023-04-13T05:46:58.290Z,96227.25
2023-04-13T05:49:24.944Z,96231.72
2023-04-13T05:51:51.500Z,96224.94
2023-04-13T05:54:18.086Z,96230.00
2023-04-13T05:56:44.685Z,96238.63
2023-04-13T05:59:11.266Z,96232.28
2023-04-13T06:01:37.930Z,96225.72
2023-04-13T06:04:05.005Z,96232.59
2023-04-13T06:06:31.790Z,96244.19
2023-04-13T06:08:59.018Z,96242.94
2023-04-13T06:11:25.765Z,96247.44
2023-04-13T06:13:52.347Z,96252.94
2023-04-13T06:16:21.050Z,96257.97
2023-04-13T06:18:48.324Z,96263.66
2023-04-13T06:21:15.094Z,96267.53
2023-04-13T06:23:41.658Z,96269.13
2023-04-13T06:26:08.290Z,96268.22
2023-04-13T06:28:35.070Z,96267.19
2023-04-13T06:31:02.067Z,96277.50
2023-04-13T06:33:28.847Z,96275.66
2023-04-13T06:35:55.418Z,96274.41
2023-04-13T06:38:22.030Z,96280.03
2023-04-13T06:40:48.601Z,96279.13
2023-04-13T06:43:26.151Z,96274.75
2023-04-13T06:45:55.545Z,96278.31
2023-04-13T06:48:22.228Z,96283.22
2023-04-13T06:50:48.926Z,96274.38
2023-04-13T06:53:15.511Z,96281.41
2023-04-13T06:55:42.079Z,96288.53
2023-04-13T06:58:08.690Z,96287.38
2023-04-13T07:00:35.361Z,96292.97
2023-04-13T07:03:02.212Z,96294.47
2023-04-13T07:05:28.990Z,96296.66
2023-04-13T07:07:55.600Z,96299.66
2023-04-13T07:10:22.237Z,96299.53
2023-04-13T07:12:48.976Z,96304.22
2023-04-13T07:15:15.752Z,96307.81
2023-04-13T07:17:42.436Z,96311.34
2023-04-13T07:20:09.027Z,96314.59
2023-04-13T07:22:36.052Z,96313.41
2023-04-13T07:25:02.667Z,96309.94
2023-04-13T07:27:29.260Z,96312.84
2023-04-13T07:29:55.863Z,96320.53
2023-04-13T07:32:25.986Z,96319.50
2023-04-13T07:34:57.069Z,96324.72
2023-04-13T07:37:23.621Z,96331.03
2023-04-13T07:39:50.225Z,96333.03
2023-04-13T07:42:16.787Z,96334.53
2023-04-13T07:44:43.363Z,96345.22
2023-04-13T07:47:10.082Z,96337.31
2023-04-13T07:49:36.717Z,96343.50
2023-04-13T07:52:03.577Z,96341.53
2023-04-13T07:54:30.339Z,96334.91
2023-04-13T07:56:57.108Z,96341.63
2023-04-13T07:59:25.170Z,96348.50
2023-04-13T08:01:52.001Z,96342.34
2023-04-13T08:04:18.713Z,96349.34
2023-04-13T08:06:45.369Z,96353.84
2023-04-13T08:09:11.942Z,96358.75
2023-04-13T08:11:38.543Z,96357.91
2023-04-13T08:14:05.142Z,96357.88
2023-04-13T08:16:31.766Z,96364.44
2023-04-13T08:18:58.643Z,96358.72
2023-04-13T08:21:25.358Z,96357.44
2023-04-13T08:23:51.948Z,96359.00
2023-04-13T08:26:18.539Z,96356.16
2023-04-13T08:28:45.181Z,96354.41
2023-04-13T08:31:11.820Z,96353.88
2023-04-13T08:33:38.447Z,96356.81
2023-04-13T08:36:05.062Z,96358.09
2023-04-13T08:38:31.635Z,96355.53
2023-04-13T08:40:58.216Z,96356.66
2023-04-13T08:43:24.889Z,96349.28
2023-04-13T08:45:51.838Z,96349.09
2023-04-13T08:48:18.489Z,96340.59
2023-04-13T08:50:45.080Z,96344.59
2023-04-13T08:53:11.684Z,96352.56
2023-04-13T08:55:38.586Z,96358.50
2023-04-13T08:58:05.173Z,96353.84
2023-04-13T09:00:31.764Z,96351.34
2023-04-13T09:03:04.473Z,96353.72
2023-04-13T09:05:31.943Z,96353.69
2023-04-13T09:07:58.540Z,96347.94
2023-04-13T09:10:25.180Z,96349.13
2023-04-13T09:12:52.186Z,96347.28
2023-04-13T09:15:18.770Z,96348.41
2023-04-13T09:17:45.397Z,96351.03
2023-04-13T09:20:12.007Z,96347.72
2023-04-13T09:22:38.953Z,96347.72
2023-04-13T09:25:05.555Z,96352.91
2023-04-13T09:27:32.102Z,96348.25
2023-04-13T09:29:58.687Z,96352.63
2023-04-13T09:32:25.349Z,96350.34
2023-04-13T09:34:51.936Z,96356.59
2023-04-13T09:37:18.751Z,96355.63
2023-04-13T09:39:45.402Z,96359.88
2023-04-13T09:42:12.004Z,96359.88
2023-04-13T09:44:38.599Z,96365.00
2023-04-13T09:47:05.193Z,96369.91
2023-04-13T09:49:31.845Z,96362.66
2023-04-13T09:51:58.788Z,96363.88
2023-04-13T09:54:25.356Z,96370.25
2023-04-13T09:56:52.639Z,96367.38
2023-04-13T09:59:19.691Z,96374.19
2023-04-13T10:01:46.661Z,96375.94
2023-04-13T10:04:13.398Z,96372.50
2023-04-13T10:06:40.015Z,96368.94
2023-04-13T10:09:06.574Z,96367.91
2023-04-13T10:11:33.166Z,96375.09
2023-04-13T10:14:00.097Z,96362.56
2023-04-13T10:16:26.994Z,96362.84
2023-04-13T10:18:53.641Z,96365.06
2023-04-13T10:21:20.198Z,96368.13
2023-04-13T10:23:46.898Z,96366.97
2023-04-13T10:26:13.583Z,96361.72
2023-04-13T10:28:40.553Z,96367.31
2023-04-13T10:31:08.351Z,96367.50
2023-04-13T10:33:35.128Z,96365.28
2023-04-13T10:36:01.707Z,96368.53
2023-04-13T10:38:28.382Z,96374.34
2023-04-13T10:40:54.980Z,96376.44
2023-04-13T10:43:21.634Z,96373.78
2023-04-13T10:45:48.235Z,96367.22
2023-04-13T10:48:14.895Z,96375.41
2023-04-13T10:50:41.512Z,96376.16
2023-04-13T10:53:08.114Z,96374.34
2023-04-13T10:55:34.739Z,96379.06
2023-04-13T10:58:01.303Z,96384.22
2023-04-13T11:00:38.301Z,96377.00
2023-04-13T11:03:11.973Z,96369.44
2023-04-13T11:05:38.605Z,96362.97
2023-04-13T11:08:05.123Z,96359.34
2023-04-13T11:10:31.816Z,96352.97
2023-04-13T11:12:58.412Z,96355.06
2023-04-13T11:15:25.138Z,96352.75
2023-04-13T11:17:51.776Z,96355.06
2023-04-13T11:20:18.446Z,96359.97
2023-04-13T11:22:47.392Z,96351.56
2023-04-13T11:25:14.325Z,96357.50
2023-04-13T11:27:40.970Z,96350.50
2023-04-13T11:30:07.609Z,96350.97
2023-04-13T11:32:34.268Z,96345.38
2023-04-13T11:35:03.566Z,96345.94
2023-04-13T11:37:30.134Z,96346.88
2023-04-13T11:39:56.710Z,96350.63
2023-04-13T11:42:23.407Z,96336.13
2023-04-13T11:44:50.049Z,96346.31
2023-04-13T11:47:16.618Z,96353.69
2023-04-13T11:49:43.276Z,96347.50
2023-04-13T11:52:09.839Z,96341.50
2023-04-13T11:54:36.441Z,96348.22
2023-04-13T11:57:03.045Z,96343.91
2023-04-13T11:59:29.638Z,96348.38
2023-04-13T12:02:02.668Z,96342.78
2023-04-13T12:04:30.671Z,96332.38
2023-04-13T12:06:57.585Z,96337.69
2023-04-13T12:09:40.069Z,96332.41
2023-04-13T12:12:46.293Z,96326.34
2023-04-13T12:15:15.339Z,96328.78
2023-04-13T12:17:50.098Z,96319.72
2023-04-13T12:20:23.508Z,96309.00
2023-04-13T12:22:57.558Z,96322.50
2023-04-13T12:25:35.432Z,96321.53
2023-04-13T12:28:02.848Z,96323.94
2023-04-13T12:30:29.434Z,96324.59
2023-04-13T12:32:56.029Z,96321.09
2023-04-13T12:35:22.785Z,96314.50
2023-04-13T12:37:49.467Z,96312.69
2023-04-13T12:40:16.071Z,96310.34
2023-04-13T12:42:42.633Z,96307.59
2023-04-13T12:45:09.411Z,96308.16
2023-04-13T12:47:36.076Z,96303.69
2023-04-13T12:50:02.804Z,96313.59
2023-04-13T12:52:29.425Z,96296.81
2023-04-13T12:54:56.099Z,96304.56
2023-04-13T12:57:22.719Z,96300.47
2023-04-13T12:59:49.288Z,96291.81
2023-04-13T13:02:15.915Z,96296.66
2023-04-13T13:04:42.624Z,96293.69
2023-04-13T13:07:09.257Z,96292.50
2023-04-13T13:09:35.820Z,96282.53
2023-04-13T13:12:02.556Z,96289.75
2023-04-13T13:14:30.441Z,96293.75
2023-04-13T13:16:57.068Z,96289.25
2023-04-13T13:19:23.652Z,96293.38
2023-04-13T13:21:50.223Z,96295.69
2023-04-13T13:24:16.806Z,96297.72
2023-04-13T13:27:07.641Z,96298.53
2023-04-13T13:29:30.009Z,96305.94
2023-04-13T13:31:56.746Z,96314.59
2023-04-13T13:34:23.393Z,96317.84
2023-04-13T13:36:50.092Z,96315.75
2023-04-13T13:39:16.658Z,96314.97
2023-04-13T13:41:43.265Z,96313.44
2023-04-13T13:44:09.873Z,96309.94
2023-04-13T13:46:36.530Z,96308.19
2023-04-13T13:49:03.436Z,96317.50
2023-04-13T13:51:30.240Z,96323.78
2023-04-13T13:53:56.846Z,96315.75
2023-04-13T13:56:23.420Z,96314.09
2023-04-13T13:58:50.019Z,96310.53
2023-04-13T14:01:16.745Z,96313.56
2023-04-13T14:03:43.558Z,96305.94
2023-04-13T14:06:10.188Z,96296.91
2023-04-13T14:08:36.791Z,96296.59
2023-04-13T14:11:04.368Z,96301.31
2023-04-13T14:13:30.976Z,96293.19
2023-04-13T14:15:57.636Z,96294.88
2023-04-13T14:18:24.322Z,96292.50
2023-04-13T14:20:51.009Z,96295.38
2023-04-13T14:23:18.633Z,96293.69
2023-04-13T14:25:45.250Z,96292.16
2023-04-13T14:28:11.814Z,96294.75
2023-04-13T14:30:38.537Z,96304.13
2023-04-13T14:33:05.167Z,96288.66
2023-04-13T14:35:32.158Z,96280.41
2023-04-13T14:37:58.748Z,96286.91
2023-04-13T14:40:25.326Z,96276.47
2023-04-13T14:42:51.941Z,96265.63
2023-04-13T14:45:18.551Z,96261.72
2023-04-13T14:47:45.208Z,96265.78
2023-04-13T14:50:11.858Z,96272.22
2023-04-13T14:52:38.440Z,96259.22
2023-04-13T14:55:05.110Z,96253.03
2023-04-13T14:57:31.700Z,96261.78
2023-04-13T14:59:58.346Z,96269.81
2023-04-13T15:02:25.135Z,96279.69
2023-04-13T15:04:52.103Z,96279.81
2023-04-13T15:07:18.889Z,96267.31
2023-04-13T15:09:45.665Z,96263.00
2023-04-13T15:12:13.760Z,96268.22
2023-04-13T15:14:40.590Z,96270.91
2023-04-13T15:17:07.315Z,96265.97
2023-04-13T15:19:34.055Z,96252.66
2023-04-13T15:22:00.680Z,96254.41
2023-04-13T15:24:27.248Z,96256.88
2023-04-13T15:26:53.948Z,96261.28
2023-04-13T15:29:20.562Z,96258.19
2023-04-13T15:31:47.133Z,96260.66
2023-04-13T15:34:13.811Z,96261.06
2023-04-13T15:36:40.391Z,96258.03
2023-04-13T15:39:07.014Z,96263.38
2023-04-13T15:41:33.594Z,96259.22
2023-04-13T15:44:00.240Z,96253.09
2023-04-13T15:46:26.881Z,96251.47
2023-04-13T15:48:53.472Z,96258.09
2023-04-13T15:51:22.622Z,96264.34
2023-04-13T15:53:50.133Z,96274.59
2023-04-13T15:56:16.743Z,96273.31
2023-04-13T15:58:43.401Z,96275.31
2023-04-13T16:01:10.378Z,96261.03
2023-04-13T16:03:37.227Z,96269.97
2023-04-13T16:06:06.325Z,96263.16
2023-04-13T16:08:32.993Z,96264.91
2023-04-13T16:10:59.675Z,96262.81
2023-04-13T16:13:34.650Z,96262.53
2023-04-13T16:16:08.028Z,96266.50
2023-04-13T16:18:34.752Z,96271.88
2023-04-13T16:21:01.438Z,96273.91
2023-04-13T16:23:31.149Z,96279.03
2023-04-13T16:25:57.745Z,96277.69
2023-04-13T16:28:24.369Z,96268.63
2023-04-13T16:30:50.989Z,96267.81
2023-04-13T16:33:17.750Z,96267.69
2023-04-13T16:35:44.573Z,96266.56
2023-04-13T16:38:11.142Z,96265.44
2023-04-13T16:40:38.261Z,96268.91
2023-04-13T16:43:04.852Z,96266.13
2023-04-13T16:45:31.491Z,96267.88
2023-04-13T16:47:58.261Z,96263.16
2023-04-13T16:50:25.303Z,96267.69
2023-04-13T16:52:51.932Z,96271.38
2023-04-13T16:55:18.547Z,96266.31
2023-04-13T16:57:45.160Z,96270.94
2023-04-13T17:00:11.749Z,96270.59
2023-04-13T17:02:38.496Z,96269.78
2023-04-13T17:05:05.359Z,96274.22
2023-04-13T17:07:32.025Z,96276.28
2023-04-13T17:09:58.694Z,96267.22
2023-04-13T17:12:25.403Z,96264.75
2023-04-13T17:14:52.041Z,96260.03
2023-04-13T17:17:18.706Z,96257.06
2023-04-13T17:19:45.287Z,96244.66
2023-04-13T17:22:14.926Z,96239.47
2023-04-13T17:24:41.573Z,96241.47
2023-04-13T17:27:08.153Z,96249.59
2023-04-13T17:29:35.458Z,96244.88
2023-04-13T17:32:02.138Z,96247.06
2023-04-13T17:34:28.852Z,96239.19
2023-04-13T17:36:55.995Z,96242.03
2023-04-13T17:39:22.600Z,96255.13
2023-04-13T17:41:49.333Z,96265.09
2023-04-13T17:44:15.903Z,96256.03
2023-04-13T17:46:42.503Z,96247.34
2023-04-13T17:49:09.488Z,96247.44
2023-04-13T17:51:36.134Z,96240.91
2023-04-13T17:54:02.861Z,96231.13
2023-04-13T17:56:29.480Z,96242.94
2023-04-13T17:58:56.123Z,96227.13
2023-04-13T18:01:22.843Z,96233.44
2023-04-13T18:03:49.630Z,96229.75
2023-04-13T18:06:16.325Z,96228.75
2023-04-13T18:08:42.999Z,96231.59
2023-04-13T18:11:09.778Z,96238.97
2023-04-13T18:13:36.611Z,96243.31
2023-04-13T18:16:03.281Z,96251.13
2023-04-13T18:18:29.910Z,96255.81
2023-04-13T18:20:56.776Z,96261.00
2023-04-13T18:23:23.467Z,96268.53
2023-04-13T18:25:50.064Z,96275.66
2023-04-13T18:28:16.701Z,96272.22
2023-04-13T18:30:43.366Z,96270.97
2023-04-13T18:33:09.967Z,96271.88
2023-04-13T18:35:36.633Z,96265.44
2023-04-13T18:38:03.226Z,96262.78
2023-04-13T18:40:29.884Z,96257.06
2023-04-13T18:42:56.508Z,96259.94
2023-04-13T18:45:23.121Z,96260.16
2023-04-13T18:47:49.817Z,96251.31
2023-04-13T18:50:16.442Z,96256.50
2023-04-13T18:52:43.291Z,96256.84
2023-04-13T18:55:09.880Z,96259.34
2023-04-13T18:57:36.893Z,96271.28
2023-04-13T19:00:03.501Z,96273.25
2023-04-13T19:02:30.296Z,96273.59
2023-04-13T19:04:57.174Z,96267.16
2023-04-13T19:07:23.880Z,96272.78
2023-04-13T19:09:50.583Z,96269.31
2023-04-13T19:12:17.208Z,96271.72
2023-04-13T19:14:43.833Z,96263.56
2023-04-13T19:17:11.945Z,96263.94
2023-04-13T19:19:38.632Z,96266.28
2023-04-13T19:22:05.327Z,96263.06
2023-04-13T19:24:31.918Z,96253.69
2023-04-13T19:26:58.598Z,96256.41
2023-04-13T19:29:25.229Z,96253.72
2023-04-13T19:31:52.010Z,96250.50
2023-04-13T19:34:18.765Z,96248.91
2023-04-13T19:36:45.546Z,96249.00
2023-04-13T19:39:12.162Z,96238.72
2023-04-13T19:41:38.737Z,96235.13
2023-04-13T19:44:05.336Z,96234.09
2023-04-13T19:46:32.208Z,96229.19
2023-04-13T19:48:58.989Z,96226.09
2023-04-13T19:51:25.653Z,96219.56
2023-04-13T19:53:52.263Z,96215.66
2023-04-13T19:56:18.931Z,96221.16
2023-04-13T19:58:45.599Z,96213.72
2023-04-13T20:01:12.509Z,96217.28
2023-04-13T20:03:39.718Z,96213.91
2023-04-13T20:06:07.591Z,96199.94
2023-04-13T20:08:34.297Z,96203.16
2023-04-13T20:11:00.894Z,96200.66
2023-04-13T20:13:27.654Z,96195.69
2023-04-13T20:15:54.349Z,96192.59
2023-04-13T20:18:21.011Z,96196.63
2023-04-13T20:20:47.687Z,96196.56
2023-04-13T20:23:14.275Z,96192.13
2023-04-13T20:25:40.886Z,96195.69
2023-04-13T20:28:07.542Z,96193.41
2023-04-13T20:30:34.240Z,96195.91
2023-04-13T20:33:00.874Z,96200.38
2023-04-13T20:35:27.564Z,96198.81
2023-04-13T20:37:54.162Z,96196.38
2023-04-13T20:40:20.803Z,96203.22
2023-04-13T20:42:47.417Z,96201.38
2023-04-13T20:45:14.113Z,96197.00
2023-04-13T20:47:40.819Z,96199.13
2023-04-13T20:50:07.429Z,96195.53
2023-04-13T20:52:34.014Z,96185.56
2023-04-13T20:55:00.652Z,96185.78
2023-04-13T20:57:27.308Z,96182.56
2023-04-13T20:59:53.878Z,96181.72
2023-04-13T21:02:20.584Z,96169.25
2023-04-13T21:04:47.247Z,96160.84
2023-04-13T21:07:13.885Z,96158.84
2023-04-13T21:09:40.619Z,96152.19
2023-04-13T21:12:07.315Z,96144.78
2023-04-13T21:14:33.930Z,96137.00
2023-04-13T21:17:00.530Z,96135.75
2023-04-13T21:19:27.131Z,96132.41
2023-04-13T21:21:53.819Z,96128.03
2023-04-13T21:24:20.448Z,96128.00
2023-04-13T21:26:47.039Z,96127.09
2023-04-13T21:29:13.733Z,96125.75
2023-04-13T21:31:40.343Z,96131.53
2023-04-13T21:34:06.957Z,96125.69
2023-04-13T21:39:03.548Z,96115.16
2023-04-13T21:41:30.125Z,96128.44
2023-04-13T21:43:56.825Z,96117.13
2023-04-13T21:46:23.499Z,96120.00
2023-04-13T21:48:50.243Z,96111.00
2023-04-13T21:51:16.875Z,96111.44
2023-04-13T21:53:43.492Z,96108.00
2023-04-13T21:56:10.078Z,96114.09
2023-04-13T21:58:36.722Z,96111.00
2023-04-13T22:01:03.412Z,96116.69
2023-04-13T22:03:30.320Z,96108.75
2023-04-13T22:05:57.058Z,96111.16
2023-04-13T22:08:23.665Z,96121.13
2023-04-13T22:10:50.271Z,96120.28
2023-04-13T22:13:16.945Z,96110.34
2023-04-13T22:15:43.670Z,96109.66
2023-04-13T22:18:10.331Z,96109.50
2023-04-13T22:20:37.005Z,96104.97
2023-04-13T22:23:03.635Z,96107.38
2023-04-13T22:25:30.249Z,96110.28
2023-04-13T22:27:56.970Z,96115.66
2023-04-13T22:30:24.130Z,96104.50
2023-04-13T22:32:50.824Z,96100.91
2023-04-13T22:35:17.643Z,96102.97
2023-04-13T22:37:44.235Z,96107.00
2023-04-13T22:40:10.981Z,96101.13
2023-04-13T22:42:37.572Z,96115.31
2023-04-13T22:45:04.484Z,96102.84
2023-04-13T22:47:31.100Z,96109.91
2023-04-13T22:49:57.883Z,96105.22
2023-04-13T22:52:24.879Z,96095.25
2023-04-13T22:54:51.441Z,96101.53
2023-04-13T22:57:18.026Z,96093.19
2023-04-13T22:59:44.628Z,96088.69
2023-04-13T23:02:11.436Z,96088.34
2023-04-13T23:04:38.206Z,96081.94
2023-04-13T23:07:04.857Z,96068.63
2023-04-13T23:09:31.488Z,96078.72
2023-04-13T23:11:58.081Z,96069.03
2023-04-13T23:14:24.741Z,96070.63
2023-04-13T23:16:51.373Z,96065.31
2023-04-13T23:19:17.994Z,96066.94
2023-04-13T23:21:44.601Z,96066.59
2023-04-13T23:24:11.251Z,96062.94
2023-04-13T23:26:37.916Z,96058.97
2023-04-13T23:29:04.575Z,96055.56
2023-04-13T23:31:31.966Z,96063.38
2023-04-13T23:33:58.638Z,96057.56
2023-04-13T23:36:25.308Z,96056.91
2023-04-13T23:38:52.079Z,96050.41
2023-04-13T23:41:19.161Z,96037.47
2023-04-13T23:43:46.082Z,96029.44
2023-04-13T23:46:12.757Z,96030.09
2023-04-13T23:48:39.521Z,96029.00
2023-04-13T23:51:06.101Z,96036.16
2023-04-13T23:53:32.858Z,96032.94
2023-04-13T23:55:59.452Z,96028.91
2023-04-13T23:58:26.028Z,96020.25
